createdAt,value
2023-02-17T00:01:26.983Z,85.88
2023-02-17T00:03:54.791Z,81.45
2023-02-17T00:06:24.884Z,84.18
2023-02-17T00:08:52.760Z,94.85
2023-02-17T00:11:20.203Z,88.43
2023-02-17T00:13:47.649Z,85.90
2023-02-17T00:16:23.896Z,83.35
2023-02-17T00:18:56.261Z,94.05
2023-02-17T00:21:26.159Z,76.55
2023-02-17T00:23:53.871Z,85.88
2023-02-17T00:26:21.777Z,89.57
2023-02-17T00:28:49.528Z,86.63
2023-02-17T00:31:19.724Z,84.03
2023-02-17T00:33:47.142Z,84.68
2023-02-17T00:36:19.897Z,81.90
2023-02-17T00:38:48.291Z,79.20
2023-02-17T00:41:16.352Z,80.78
2023-02-17T00:43:43.463Z,78.40
2023-02-17T00:46:10.517Z,80.72
2023-02-17T00:48:37.824Z,81.20
2023-02-17T00:51:05.017Z,84.20
2023-02-17T00:53:32.486Z,71.30
2023-02-17T00:55:59.463Z,79.25
2023-02-17T00:58:26.791Z,79.03
2023-02-17T01:00:56.791Z,75.88
2023-02-17T01:03:24.562Z,79.90
2023-02-17T01:05:51.705Z,72.95
2023-02-17T01:08:18.893Z,71.82
2023-02-17T01:10:47.340Z,65.22
2023-02-17T01:13:15.531Z,71.57
2023-02-17T01:15:45.345Z,65.00
2023-02-17T01:18:12.320Z,66.22
2023-02-17T01:20:40.849Z,67.07
2023-02-17T01:23:09.137Z,65.68
2023-02-17T01:25:45.755Z,55.45
2023-02-17T01:28:21.075Z,55.03
2023-02-17T01:30:49.724Z,57.83
2023-02-17T01:33:16.786Z,56.72
2023-02-17T01:35:43.810Z,56.13
2023-02-17T01:38:10.904Z,55.05
2023-02-17T01:40:37.953Z,52.15
2023-02-17T01:43:06.876Z,52.42
2023-02-17T01:45:42.015Z,46.15
2023-02-17T01:48:16.895Z,52.80
2023-02-17T01:50:58.276Z,46.47
2023-02-17T01:53:35.224Z,44.25
2023-02-17T01:56:03.094Z,46.20
2023-02-17T01:58:32.379Z,47.78
2023-02-17T02:01:03.167Z,44.95
2023-02-17T02:03:34.669Z,46.45
2023-02-17T02:06:04.242Z,44.50
2023-02-17T02:08:39.037Z,43.13
2023-02-17T02:11:06.112Z,39.33
2023-02-17T02:13:33.156Z,39.17
2023-02-17T02:16:11.822Z,40.83
2023-02-17T02:19:03.192Z,39.25
2023-02-17T02:21:59.538Z,39.45
2023-02-17T02:24:42.944Z,45.00
2023-02-17T02:27:18.552Z,39.67
2023-02-17T02:30:05.577Z,37.42
2023-02-17T02:32:57.002Z,36.60
2023-02-17T02:35:23.973Z,40.97
2023-02-17T02:37:57.018Z,37.47
2023-02-17T02:40:28.846Z,37.08
2023-02-17T02:42:57.354Z,33.67
2023-02-17T02:45:24.334Z,33.55
2023-02-17T02:47:56.507Z,32.75
2023-02-17T02:50:51.692Z,34.42
2023-02-17T02:56:23.547Z,33.05
2023-02-17T02:59:11.339Z,34.22
2023-02-17T03:01:48.462Z,36.13
2023-02-17T03:04:49.529Z,38.60
2023-02-17T03:07:31.866Z,32.40
2023-02-17T03:10:00.096Z,33.92
2023-02-17T03:12:28.568Z,30.52
2023-02-17T03:15:03.655Z,32.95
2023-02-17T03:17:32.911Z,35.47
2023-02-17T03:20:03.645Z,32.10
2023-02-17T03:22:36.635Z,35.95
2023-02-17T03:25:04.236Z,32.53
2023-02-17T03:27:31.183Z,40.40
2023-02-17T03:29:58.179Z,36.35
2023-02-17T03:32:25.506Z,37.10
2023-02-17T03:34:52.569Z,38.28
2023-02-17T03:37:19.557Z,34.47
2023-02-17T03:39:46.604Z,38.92
2023-02-17T03:42:13.563Z,37.97
2023-02-17T03:44:40.571Z,35.40
2023-02-17T03:47:07.627Z,42.13
2023-02-17T03:49:34.517Z,38.10
2023-02-17T03:52:01.477Z,42.33
2023-02-17T03:54:28.557Z,43.17
2023-02-17T03:56:55.726Z,41.08
2023-02-17T03:59:22.757Z,45.30
2023-02-17T04:01:49.708Z,38.25
2023-02-17T04:04:16.800Z,40.78
2023-02-17T04:06:43.727Z,40.75
2023-02-17T04:09:10.702Z,41.92
2023-02-17T04:11:37.698Z,42.13
2023-02-17T04:14:05.009Z,38.17
2023-02-17T04:16:32.118Z,41.15
2023-02-17T04:18:59.099Z,38.97
2023-02-17T04:21:26.119Z,37.78
2023-02-17T04:23:55.223Z,39.33
2023-02-17T04:26:22.220Z,43.78
2023-02-17T04:28:49.435Z,41.10
2023-02-17T04:31:16.566Z,45.13
2023-02-17T04:33:43.557Z,39.90
2023-02-17T04:36:11.606Z,38.58
2023-02-17T04:38:39.338Z,42.83
2023-02-17T04:41:07.195Z,40.88
2023-02-17T04:43:34.132Z,42.15
2023-02-17T04:46:01.081Z,38.95
2023-02-17T04:48:28.172Z,45.13
2023-02-17T04:50:55.086Z,40.15
2023-02-17T04:53:22.179Z,42.53
2023-02-17T04:55:51.618Z,43.85
2023-02-17T04:58:19.865Z,40.92
2023-02-17T05:00:49.124Z,41.67
2023-02-17T05:03:16.985Z,44.88
2023-02-17T05:05:44.263Z,45.28
2023-02-17T05:08:11.285Z,48.25
2023-02-17T05:10:38.276Z,47.85
2023-02-17T05:13:05.208Z,42.17
2023-02-17T05:15:34.746Z,48.15
2023-02-17T05:18:02.104Z,45.10
2023-02-17T05:20:29.337Z,45.00
2023-02-17T05:22:56.349Z,50.28
2023-02-17T05:25:23.456Z,47.45
2023-02-17T05:27:50.409Z,46.80
2023-02-17T05:30:17.455Z,46.58
2023-02-17T05:32:44.457Z,49.13
2023-02-17T05:35:11.601Z,47.10
2023-02-17T05:37:38.749Z,49.90
2023-02-17T05:40:06.866Z,72.88
2023-02-17T05:42:33.775Z,68.72
2023-02-17T05:45:00.900Z,59.65
2023-02-17T05:47:28.162Z,52.67
2023-02-17T05:49:55.194Z,52.22
2023-02-17T05:52:22.122Z,58.28
2023-02-17T05:54:49.153Z,50.33
2023-02-17T05:57:16.129Z,51.50
2023-02-17T05:59:43.097Z,52.38
2023-02-17T06:02:10.058Z,55.97
2023-02-17T06:04:37.261Z,52.45
2023-02-17T06:07:04.215Z,52.35
2023-02-17T06:09:31.246Z,54.28
2023-02-17T06:11:58.210Z,55.60
2023-02-17T06:14:25.117Z,59.78
2023-02-17T06:16:52.096Z,62.95
2023-02-17T06:19:19.014Z,62.55
2023-02-17T06:21:46.000Z,62.67
2023-02-17T06:24:13.034Z,66.57
2023-02-17T06:26:39.939Z,64.88
2023-02-17T06:29:07.328Z,62.35
2023-02-17T06:31:34.323Z,60.00
2023-02-17T06:34:01.316Z,65.93
2023-02-17T06:36:28.265Z,68.72
2023-02-17T06:38:55.176Z,63.13
2023-02-17T06:41:22.215Z,55.63
2023-02-17T06:43:49.103Z,51.80
2023-02-17T06:46:16.058Z,51.40
2023-02-17T06:48:43.241Z,47.20
2023-02-17T06:51:10.300Z,42.03
2023-02-17T06:53:37.147Z,42.08
2023-02-17T06:56:04.581Z,40.00
2023-02-17T06:58:32.821Z,38.92
2023-02-17T07:00:59.727Z,38.67
2023-02-17T07:03:26.938Z,38.90
2023-02-17T07:05:58.412Z,34.22
2023-02-17T07:08:25.825Z,33.20
2023-02-17T07:10:52.783Z,37.15
2023-02-17T07:13:19.705Z,32.40
2023-02-17T07:15:46.587Z,30.55
2023-02-17T07:18:13.516Z,28.85
2023-02-17T07:20:40.528Z,51.50
2023-02-17T07:23:07.684Z,59.22
2023-02-17T07:25:34.730Z,35.70
2023-02-17T07:28:01.666Z,31.88
2023-02-17T07:30:28.700Z,40.67
2023-02-17T07:32:55.680Z,36.10
2023-02-17T07:35:22.653Z,25.92
2023-02-17T07:37:51.686Z,25.80
2023-02-17T07:40:18.930Z,24.42
2023-02-17T07:42:45.832Z,26.38
2023-02-17T07:45:12.782Z,24.88
2023-02-17T07:47:39.678Z,21.90
2023-02-17T07:50:13.906Z,23.60
2023-02-17T07:52:40.797Z,24.38
2023-02-17T07:55:07.988Z,26.20
2023-02-17T07:57:34.926Z,24.05
2023-02-17T08:00:01.959Z,22.45
2023-02-17T08:02:28.964Z,23.50
2023-02-17T08:04:55.853Z,26.85
2023-02-17T08:07:22.761Z,22.55
2023-02-17T08:10:08.047Z,23.00
2023-02-17T08:12:53.369Z,24.17
2023-02-17T08:15:20.357Z,25.42
2023-02-17T08:17:50.977Z,23.83
2023-02-17T08:20:18.170Z,21.25
2023-02-17T08:22:45.271Z,22.23
2023-02-17T08:25:12.241Z,25.13
2023-02-17T08:27:39.194Z,22.35
2023-02-17T08:30:06.984Z,25.23
2023-02-17T08:32:33.971Z,23.00
2023-02-17T08:35:01.785Z,22.67
2023-02-17T08:37:30.312Z,21.88
2023-02-17T08:39:59.079Z,20.83
2023-02-17T08:42:27.443Z,21.58
2023-02-17T08:44:54.765Z,22.98
2023-02-17T08:47:21.708Z,20.42
2023-02-17T08:49:48.720Z,22.10
2023-02-17T08:52:15.673Z,22.70
2023-02-17T08:54:42.557Z,24.70
2023-02-17T08:57:09.478Z,23.90
2023-02-17T08:59:36.689Z,25.40
2023-02-17T09:02:04.218Z,23.50
2023-02-17T09:04:31.209Z,22.33
2023-02-17T09:06:58.567Z,26.83
2023-02-17T09:09:29.247Z,26.45
2023-02-17T09:11:57.966Z,28.02
2023-02-17T09:14:25.492Z,27.33
2023-02-17T09:16:53.494Z,25.55
2023-02-17T09:19:21.006Z,25.17
2023-02-17T09:21:48.573Z,27.08
2023-02-17T09:24:16.818Z,26.45
2023-02-17T09:26:43.883Z,26.27
2023-02-17T09:29:10.993Z,23.75
2023-02-17T09:31:38.462Z,29.15
2023-02-17T09:34:05.957Z,27.80
2023-02-17T09:36:37.910Z,25.63
2023-02-17T09:39:05.288Z,31.00
2023-02-17T09:41:43.949Z,32.88
2023-02-17T09:44:20.954Z,33.53
2023-02-17T09:47:02.887Z,30.58
2023-02-17T09:49:41.413Z,28.25
2023-02-17T09:52:29.617Z,34.20
2023-02-17T09:55:13.669Z,27.35
2023-02-17T09:58:27.845Z,32.63
2023-02-17T10:00:58.134Z,35.80
2023-02-17T10:03:52.161Z,31.55
2023-02-17T10:06:24.663Z,29.88
2023-02-17T10:08:54.137Z,31.52
2023-02-17T10:11:28.605Z,32.97
2023-02-17T10:16:31.115Z,32.05
2023-02-17T10:19:25.343Z,31.27
2023-02-17T10:22:17.589Z,34.70
2023-02-17T10:24:44.557Z,29.92
2023-02-17T10:27:36.228Z,32.63
2023-02-17T10:30:24.637Z,30.23
2023-02-17T10:33:05.188Z,32.30
2023-02-17T10:35:44.237Z,38.67
2023-02-17T10:38:38.948Z,33.75
2023-02-17T10:41:10.070Z,32.35
2023-02-17T10:43:37.093Z,36.00
2023-02-17T10:46:08.030Z,32.72
2023-02-17T10:49:06.880Z,32.15
2023-02-17T10:51:34.079Z,32.40
2023-02-17T10:54:06.320Z,33.30
2023-02-17T10:56:44.344Z,33.08
2023-02-17T10:59:36.696Z,33.05
2023-02-17T11:02:28.165Z,32.40
2023-02-17T11:04:55.354Z,32.53
2023-02-17T11:07:44.339Z,29.92
2023-02-17T11:10:40.315Z,34.10
2023-02-17T11:13:32.815Z,28.35
2023-02-17T11:16:01.198Z,29.27
2023-02-17T11:18:32.852Z,27.85
2023-02-17T11:21:07.165Z,27.92
2023-02-17T11:23:35.503Z,27.10
2023-02-17T11:26:10.358Z,30.65
2023-02-17T11:28:37.356Z,31.67
2023-02-17T11:31:05.117Z,30.00
2023-02-17T11:33:36.940Z,27.58
2023-02-17T11:36:06.597Z,31.45
2023-02-17T11:38:39.773Z,32.20
2023-02-17T11:41:08.376Z,28.85
2023-02-17T11:43:36.821Z,27.10
2023-02-17T11:46:22.446Z,29.02
2023-02-17T11:49:20.139Z,30.75
2023-02-17T11:52:11.312Z,33.40
2023-02-17T11:54:55.027Z,25.02
2023-02-17T11:57:33.906Z,31.08
2023-02-17T12:00:06.893Z,28.33
2023-02-17T12:02:50.641Z,30.85
2023-02-17T12:05:26.587Z,27.52
2023-02-17T12:07:59.320Z,28.02
2023-02-17T12:11:01.208Z,29.20
2023-02-17T12:13:51.123Z,32.67
2023-02-17T12:16:23.779Z,31.58
2023-02-17T12:19:03.133Z,29.40
2023-02-17T12:21:38.874Z,32.33
2023-02-17T12:24:14.044Z,26.75
2023-02-17T12:26:46.233Z,28.67
2023-02-17T12:29:44.747Z,31.75
2023-02-17T12:32:34.978Z,28.75
2023-02-17T12:35:31.592Z,34.33
2023-02-17T12:38:03.864Z,31.88
2023-02-17T12:40:55.659Z,33.10
2023-02-17T12:43:32.164Z,32.60
2023-02-17T12:46:04.148Z,29.08
2023-02-17T12:48:53.357Z,28.38
2023-02-17T12:51:35.443Z,25.45
2023-02-17T12:54:08.052Z,26.33
2023-02-17T12:57:06.029Z,25.90
2023-02-17T12:59:39.158Z,24.40
2023-02-17T13:02:12.492Z,21.67
2023-02-17T13:04:41.114Z,24.27
2023-02-17T13:07:21.310Z,21.83
2023-02-17T13:09:50.032Z,24.52
2023-02-17T13:12:23.290Z,18.90
2023-02-17T13:14:52.924Z,19.58
2023-02-17T13:17:39.764Z,21.95
2023-02-17T13:20:12.456Z,22.50
2023-02-17T13:22:42.358Z,19.80
2023-02-17T13:25:14.584Z,19.15
2023-02-17T13:27:41.735Z,19.13
2023-02-17T13:30:26.399Z,19.02
2023-02-17T13:33:08.166Z,20.10
2023-02-17T13:35:37.221Z,15.95
2023-02-17T13:38:04.661Z,15.50
2023-02-17T13:40:36.140Z,19.23
2023-02-17T13:43:17.794Z,19.05
2023-02-17T13:45:49.701Z,17.08
2023-02-17T13:48:25.213Z,14.68
2023-02-17T13:50:58.639Z,15.13
2023-02-17T13:53:30.434Z,12.65
2023-02-17T13:56:06.993Z,15.25
2023-02-17T13:58:37.592Z,12.45
2023-02-17T14:01:08.162Z,15.30
2023-02-17T14:03:56.313Z,13.88
2023-02-17T14:06:38.012Z,14.93
2023-02-17T14:09:26.027Z,13.82
2023-02-17T14:11:55.445Z,12.75
2023-02-17T14:14:26.407Z,13.90
2023-02-17T14:17:02.546Z,12.90
2023-02-17T14:19:30.617Z,11.00
2023-02-17T14:22:04.378Z,11.18
2023-02-17T14:24:38.955Z,11.60
2023-02-17T14:29:46.695Z,9.00
2023-02-17T14:32:34.165Z,9.68
2023-02-17T14:35:27.524Z,10.75
2023-02-17T14:37:54.879Z,10.07
2023-02-17T14:40:24.603Z,10.32
2023-02-17T14:42:52.101Z,10.70
2023-02-17T14:45:19.656Z,8.35
2023-02-17T14:47:47.605Z,11.05
2023-02-17T14:50:17.568Z,13.93
2023-02-17T14:52:46.994Z,11.40
2023-02-17T14:55:29.622Z,12.65
2023-02-17T14:57:56.866Z,10.88
2023-02-17T15:00:24.824Z,11.32
2023-02-17T15:02:53.329Z,8.82
2023-02-17T15:05:20.700Z,9.82
2023-02-17T15:07:47.976Z,9.00
2023-02-17T15:10:29.147Z,11.30
2023-02-17T15:12:56.986Z,10.70
2023-02-17T15:15:23.881Z,9.45
2023-02-17T15:17:50.975Z,9.07
2023-02-17T15:20:18.143Z,7.80
2023-02-17T15:22:45.206Z,8.25
2023-02-17T15:25:17.998Z,7.68
2023-02-17T15:27:45.860Z,8.63
2023-02-17T15:30:21.087Z,8.82
2023-02-17T15:32:48.611Z,6.80
2023-02-17T15:35:22.834Z,9.52
2023-02-17T15:37:50.672Z,7.88
2023-02-17T15:40:23.345Z,6.80
2023-02-17T15:43:02.022Z,7.68
2023-02-17T15:45:30.028Z,6.88
2023-02-17T15:48:05.299Z,6.80
2023-02-17T15:50:32.390Z,6.85
2023-02-17T15:52:59.726Z,6.80
2023-02-17T15:55:28.509Z,7.20
2023-02-17T15:57:59.249Z,7.20
2023-02-17T16:00:28.964Z,6.35
2023-02-17T16:02:56.125Z,6.93
2023-02-17T16:05:25.898Z,6.07
2023-02-17T16:07:53.076Z,6.82
2023-02-17T16:10:22.617Z,6.43
2023-02-17T16:12:51.685Z,6.72
2023-02-17T16:15:20.927Z,5.75
2023-02-17T16:17:49.433Z,5.70
2023-02-17T16:20:16.694Z,6.53
2023-02-17T16:22:48.047Z,6.65
2023-02-17T16:25:16.274Z,5.47
2023-02-17T16:27:45.474Z,6.85
2023-02-17T16:30:23.105Z,6.40
2023-02-17T16:32:50.811Z,5.68
2023-02-17T16:35:24.137Z,7.07
2023-02-17T16:37:58.861Z,8.05
2023-02-17T16:40:29.710Z,6.38
2023-02-17T16:42:57.383Z,6.85
2023-02-17T16:45:27.392Z,8.30
2023-02-17T16:47:56.997Z,6.13
2023-02-17T16:50:31.259Z,7.28
2023-02-17T16:53:01.098Z,7.80
2023-02-17T16:55:30.649Z,8.77
2023-02-17T16:57:58.582Z,7.78
2023-02-17T17:00:29.725Z,7.00
2023-02-17T17:02:57.723Z,6.47
2023-02-17T17:05:27.370Z,7.70
2023-02-17T17:07:55.515Z,7.10
2023-02-17T17:10:26.436Z,5.55
2023-02-17T17:12:54.120Z,7.10
2023-02-17T17:15:21.902Z,6.15
2023-02-17T17:17:52.884Z,8.20
2023-02-17T17:20:31.051Z,6.82
2023-02-17T17:23:02.748Z,5.97
2023-02-17T17:25:30.831Z,5.95
2023-02-17T17:27:58.177Z,6.25
2023-02-17T17:30:28.336Z,5.43
2023-02-17T17:32:55.662Z,7.07
2023-02-17T17:35:22.589Z,6.90
2023-02-17T17:37:49.758Z,4.85
2023-02-17T17:40:19.628Z,4.68
2023-02-17T17:42:46.673Z,10.55
2023-02-17T17:45:14.547Z,7.53
2023-02-17T17:47:42.061Z,6.15
2023-02-17T17:50:14.688Z,6.55
2023-02-17T17:52:41.675Z,4.22
2023-02-17T17:55:08.960Z,8.10
2023-02-17T17:57:36.001Z,8.77
2023-02-17T18:00:08.979Z,6.03
2023-02-17T18:02:36.019Z,9.85
2023-02-17T18:05:03.652Z,6.28
2023-02-17T18:07:32.612Z,5.70
2023-02-17T18:10:03.786Z,14.05
2023-02-17T18:12:32.554Z,10.77
2023-02-17T18:15:02.950Z,10.10
2023-02-17T18:17:33.781Z,7.82
2023-02-17T18:20:01.220Z,12.32
2023-02-17T18:22:28.240Z,7.50
2023-02-17T18:24:55.434Z,9.40
2023-02-17T18:27:23.008Z,8.68
2023-02-17T18:29:50.264Z,11.10
2023-02-17T18:32:17.458Z,10.50
2023-02-17T18:34:44.478Z,7.35
2023-02-17T18:37:11.458Z,13.30
2023-02-17T18:39:38.518Z,6.07
2023-02-17T18:42:06.076Z,5.93
2023-02-17T18:44:33.631Z,13.23
2023-02-17T18:47:00.641Z,12.15
2023-02-17T18:49:27.715Z,10.05
2023-02-17T18:51:54.989Z,7.28
2023-02-17T18:54:21.966Z,8.07
2023-02-17T18:56:49.064Z,8.15
2023-02-17T18:59:15.972Z,5.00
2023-02-17T19:01:43.504Z,5.18
2023-02-17T19:04:12.990Z,4.38
2023-02-17T19:06:40.575Z,8.63
2023-02-17T19:09:07.679Z,9.63
2023-02-17T19:11:34.906Z,8.15
2023-02-17T19:14:03.128Z,7.70
2023-02-17T19:16:32.173Z,13.05
2023-02-17T19:19:00.025Z,8.25
2023-02-17T19:21:27.297Z,11.48
2023-02-17T19:23:54.787Z,12.40
2023-02-17T19:26:22.181Z,9.02
2023-02-17T19:28:49.708Z,9.10
2023-02-17T19:31:19.764Z,7.95
2023-02-17T19:33:47.419Z,7.00
2023-02-17T19:36:17.274Z,13.25
2023-02-17T19:38:45.240Z,9.90
2023-02-17T19:41:13.800Z,7.38
2023-02-17T19:43:41.751Z,15.88
2023-02-17T19:46:15.268Z,8.73
2023-02-17T19:48:42.386Z,10.93
2023-02-17T19:51:11.034Z,14.30
2023-02-17T19:53:38.022Z,16.13
2023-02-17T19:56:12.942Z,7.45
2023-02-17T19:58:41.342Z,11.65
2023-02-17T20:01:14.754Z,13.02
2023-02-17T20:03:42.301Z,13.48
2023-02-17T20:06:18.592Z,10.10
2023-02-17T20:08:46.816Z,15.98
2023-02-17T20:11:14.967Z,15.13
2023-02-17T20:13:46.816Z,10.30
2023-02-17T20:16:16.373Z,16.48
2023-02-17T20:18:46.485Z,11.80
2023-02-17T20:21:15.854Z,10.40
2023-02-17T20:23:42.990Z,11.65
2023-02-17T20:26:13.270Z,19.40
2023-02-17T20:28:41.008Z,10.52
2023-02-17T20:31:09.133Z,10.07
2023-02-17T20:33:36.644Z,8.80
2023-02-17T20:36:05.204Z,13.07
2023-02-17T20:38:32.356Z,11.68
2023-02-17T20:41:00.412Z,17.40
2023-02-17T20:43:27.507Z,10.15
2023-02-17T20:45:54.833Z,12.98
2023-02-17T20:48:27.487Z,12.95
2023-02-17T20:50:56.057Z,14.77
2023-02-17T20:53:23.978Z,9.32
2023-02-17T20:55:51.667Z,10.38
2023-02-17T20:58:18.785Z,11.10
2023-02-17T21:00:46.202Z,16.42
2023-02-17T21:03:13.383Z,13.50
2023-02-17T21:05:40.444Z,16.27
2023-02-17T21:08:07.504Z,10.98
2023-02-17T21:10:34.553Z,9.77
2023-02-17T21:13:01.711Z,11.43
2023-02-17T21:15:28.842Z,8.77
2023-02-17T21:17:55.825Z,19.48
2023-02-17T21:20:23.051Z,12.27
2023-02-17T21:22:50.741Z,11.80
2023-02-17T21:25:17.890Z,10.93
2023-02-17T21:27:45.023Z,17.13
2023-02-17T21:30:13.151Z,15.52
2023-02-17T21:32:40.354Z,25.38
2023-02-17T21:35:09.968Z,13.18
2023-02-17T21:37:39.037Z,11.68
2023-02-17T21:40:07.858Z,9.15
2023-02-17T21:42:55.881Z,16.35
2023-02-17T21:45:24.008Z,14.63
2023-02-17T21:47:51.570Z,14.20
2023-02-17T21:50:19.268Z,17.70
2023-02-17T21:52:46.306Z,15.75
2023-02-17T21:55:13.649Z,12.50
2023-02-17T21:57:40.708Z,10.35
2023-02-17T22:00:08.984Z,14.43
2023-02-17T22:02:36.707Z,11.00
2023-02-17T22:05:04.206Z,8.95
2023-02-17T22:07:32.238Z,9.20
2023-02-17T22:09:59.867Z,12.35
2023-02-17T22:12:27.555Z,11.75
2023-02-17T22:14:54.909Z,7.60
2023-02-17T22:17:21.961Z,17.23
2023-02-17T22:19:49.042Z,10.07
2023-02-17T22:22:16.071Z,10.73
2023-02-17T22:24:43.062Z,9.57
2023-02-17T22:27:10.037Z,14.27
2023-02-17T22:29:36.947Z,11.75
2023-02-17T22:32:04.241Z,9.70
2023-02-17T22:34:31.246Z,9.73
2023-02-17T22:36:58.191Z,7.38
2023-02-17T22:39:25.399Z,19.58
2023-02-17T22:41:52.321Z,8.18
2023-02-17T22:44:19.266Z,12.25
2023-02-17T22:46:46.164Z,9.80
2023-02-17T22:49:13.325Z,14.23
2023-02-17T22:51:40.726Z,15.75
2023-02-17T22:54:08.287Z,11.75
2023-02-17T22:56:35.785Z,10.07
2023-02-17T22:59:05.011Z,14.88
2023-02-17T23:01:34.226Z,19.17
2023-02-17T23:04:01.868Z,7.68
2023-02-17T23:06:35.144Z,15.65
2023-02-17T23:09:03.608Z,15.55
2023-02-17T23:11:51.383Z,14.82
2023-02-17T23:14:31.746Z,14.60
2023-02-17T23:17:05.986Z,16.77
2023-02-17T23:19:33.302Z,12.63
2023-02-17T23:22:03.262Z,9.70
2023-02-17T23:24:30.334Z,12.43
2023-02-17T23:27:00.333Z,14.73
2023-02-17T23:29:29.013Z,14.50
2023-02-17T23:31:56.023Z,23.60
2023-02-17T23:34:23.105Z,13.93
2023-02-17T23:36:50.088Z,13.48
2023-02-17T23:39:17.347Z,17.77
2023-02-17T23:41:44.580Z,18.38
2023-02-17T23:44:13.427Z,28.90
2023-02-17T23:46:42.093Z,17.35
2023-02-17T23:49:12.125Z,16.25
2023-02-17T23:51:39.064Z,13.88
2023-02-17T23:54:06.035Z,17.75
2023-02-17T23:56:34.848Z,15.77
2023-02-17T23:59:02.285Z,16.50
